Ecokeeper — SVTY — position and weather

sailwx.info

Track history (hours):
 
Tides and Currents Weather Stations Pressure Air Temp Water Temp Dewpoint Dewpoint Depression Visibility Wind Speed Wind Dir Waves Ship Positions

Ecokeeper

Last reported at 2017-Apr-23 18:41 UTC. Time now 2017-Apr-23 21:49 UTC.
Position N 37°57' E 023°34'.

Length 90 m; draft 4.3 m.

Type: Tanker. MMSI: 240689000.

Date/timePositionNaut miles runAvg speedWind from/ knotsBaromVisibWave heightAir tempDewpointWater temp
2017-Apr-23 18:41N 37°57' E 023°34'0 0.7
2017-Apr-23 18:30N 37°57' E 023°34'1 1.9
2017-Apr-23 18:01N 37°56' E 023°35'2 4.7
2017-Apr-23 17:30N 37°55' E 023°33'3 6.8
2017-Apr-23 17:00N 37°52' E 023°30'0 0.6
2017-Apr-23 16:30N 37°52' E 023°30'0 0.0
2017-Apr-23 16:00N 37°52' E 023°30'0 0.1
2017-Apr-23 15:30N 37°52' E 023°30'0 0.0
2017-Apr-23 15:00N 37°52' E 023°30'0 0.1
2017-Apr-23 14:00N 37°52' E 023°30'0 0.0
2017-Apr-23 13:30N 37°52' E 023°30'0 0.0
2017-Apr-23 13:00N 37°52' E 023°30'0 0.0
2017-Apr-23 12:30N 37°52' E 023°30'0 0.0
2017-Apr-23 12:00N 37°52' E 023°30'0 0.0
2017-Apr-23 11:30N 37°52' E 023°30'0 0.0
2017-Apr-23 11:00N 37°52' E 023°30'0 0.1
2017-Apr-23 10:30N 37°52' E 023°30'0 0.2
2017-Apr-23 10:00N 37°52' E 023°30'0 0.6
2017-Apr-23 09:30N 37°52' E 023°30'2 4.0
2017-Apr-23 09:00N 37°53' E 023°32'4 7.3
2017-Apr-23 08:30N 37°56' E 023°35'1 2.1
2017-Apr-23 08:00N 37°57' E 023°34'0 0.0
2017-Apr-22 16:26N 37°57' E 023°34'1 2.5
2017-Apr-22 16:00N 37°56' E 023°35'2 4.8
2017-Apr-22 15:31N 37°54' E 023°33'0 0.1
2017-Apr-22 15:01N 37°54' E 023°33'0 0.2
2017-Apr-22 14:31N 37°54' E 023°33'0 0.1
2017-Apr-22 13:31N 37°54' E 023°33'0 0.0
2017-Apr-22 13:01N 37°54' E 023°33'0 0.0
2017-Apr-22 12:31N 37°54' E 023°33'0 0.1
2017-Apr-22 12:01N 37°54' E 023°33'0 0.0
2017-Apr-22 11:31N 37°54' E 023°33'0 0.0
2017-Apr-22 11:01N 37°54' E 023°33'0 0.0
2017-Apr-22 10:30N 37°54' E 023°33'0 0.1
2017-Apr-22 10:01N 37°54' E 023°33'0 0.1
2017-Apr-22 09:30N 37°54' E 023°33'0 0.0
2017-Apr-22 09:01N 37°54' E 023°33'0 0.0
2017-Apr-22 08:31N 37°54' E 023°33'0 0.0
2017-Apr-22 08:01N 37°54' E 023°33'0 0.0
2017-Apr-22 07:30N 37°54' E 023°33'0 0.0
2017-Apr-22 07:01N 37°54' E 023°33'0 0.0
2017-Apr-22 06:31N 37°54' E 023°33'0 0.2
2017-Apr-22 06:01N 37°54' E 023°33'3 5.8
2017-Apr-22 05:30N 37°56' E 023°35'1 1.8
2017-Apr-22 05:01N 37°57' E 023°34'0 0.0
2017-Apr-21 11:09N 37°57' E 023°34'0 1.3
2017-Apr-21 11:00N 37°57' E 023°34'2 4.6
2017-Apr-21 10:30N 37°57' E 023°37'0 0.0
2017-Apr-21 10:00N 37°57' E 023°37'0 0.0
2017-Apr-21 09:30N 37°57' E 023°37'0 0.0
2017-Apr-21 09:00N 37°57' E 023°37'0 0.0
2017-Apr-21 08:31N 37°57' E 023°37'0 0.0
2017-Apr-21 08:01N 37°57' E 023°37'0 0.0
2017-Apr-21 07:30N 37°57' E 023°37'0 0.0
2017-Apr-21 07:00N 37°57' E 023°37'0 0.0
2017-Apr-21 06:30N 37°57' E 023°37'0 0.0
2017-Apr-21 06:00N 37°57' E 023°37'0 0.2
2017-Apr-21 05:30N 37°57' E 023°37'2 4.6
2017-Apr-21 05:00N 37°57' E 023°34'0 0.0
2017-Apr-19 16:08N 37°57' E 023°34'0 0.1
2017-Apr-19 16:00N 37°57' E 023°34'2 3.5
2017-Apr-19 15:30N 37°55' E 023°34'4 7.4
2017-Apr-19 15:00N 37°52' E 023°32'2 3.1
2017-Apr-19 14:30N 37°51' E 023°31'0 0.1
2017-Apr-19 13:30N 37°51' E 023°31'0 0.0
2017-Apr-19 13:00N 37°51' E 023°31'0 0.0
2017-Apr-19 12:31N 37°51' E 023°31'0 0.0
2017-Apr-19 12:00N 37°51' E 023°31'0 0.1
2017-Apr-19 11:30N 37°51' E 023°31'0 0.0
2017-Apr-19 10:36N 37°51' E 023°31'0 0.1
2017-Apr-19 10:28N 37°51' E 023°31'0 0.0
2017-Apr-19 09:16N 37°51' E 023°31'0 0.0
2017-Apr-19 08:39N 37°51' E 023°31'0 0.1
2017-Apr-19 08:25N 37°51' E 023°31'0 0.0
2017-Apr-19 07:59N 37°51' E 023°31'0 0.1
2017-Apr-19 07:29N 37°50' E 023°31'0 0.2
2017-Apr-19 07:01N 37°50' E 023°31'0 0.5
2017-Apr-19 06:30N 37°51' E 023°31'0 0.7
2017-Apr-19 06:00N 37°51' E 023°31'1 2.1
2017-Apr-19 05:30N 37°52' E 023°32'4 7.2
2017-Apr-19 05:01N 37°55' E 023°35'3 5.2
2017-Apr-19 04:30N 37°57' E 023°37'0 0.1
2017-Apr-19 04:00N 37°57' E 023°37'0 0.0
2017-Apr-19 03:30N 37°57' E 023°37'0 0.0
2017-Apr-19 03:00N 37°57' E 023°37'0 0.0
2017-Apr-19 02:30N 37°57' E 023°37'0 0.0
2017-Apr-19 02:00N 37°57' E 023°37'0 0.0
2017-Apr-19 01:30N 37°57' E 023°37'0 0.0
2017-Apr-19 01:00N 37°57' E 023°37'0 0.0
2017-Apr-19 00:30N 37°57' E 023°37'0 0.0
2017-Apr-19 00:00N 37°57' E 023°37'0 0.0
2017-Apr-18 23:30N 37°57' E 023°37'0 0.0
2017-Apr-18 23:00N 37°57' E 023°37'0 0.0
2017-Apr-18 22:30N 37°57' E 023°37'0 0.0
2017-Apr-18 22:00N 37°57' E 023°37'0 0.0
2017-Apr-18 21:30N 37°57' E 023°37'0 0.0
2017-Apr-18 21:00N 37°57' E 023°37'0 0.0
2017-Apr-18 20:30N 37°57' E 023°37'0 0.0
2017-Apr-18 20:00N 37°57' E 023°37'0 0.0
2017-Apr-18 19:30N 37°57' E 023°37'0 0.0
2017-Apr-18 19:00N 37°57' E 023°37'0 0.0
2017-Apr-18 18:30N 37°57' E 023°37'0 0.0
2017-Apr-18 18:00N 37°57' E 023°37'0 0.0
2017-Apr-18 17:30N 37°57' E 023°37'0 0.0
2017-Apr-18 17:00N 37°57' E 023°37'0 0.0
2017-Apr-18 16:30N 37°57' E 023°37'0 0.0
2017-Apr-18 16:00N 37°57' E 023°37'2 3.4
2017-Apr-18 15:30N 37°55' E 023°35'4 7.3
2017-Apr-18 15:00N 37°52' E 023°33'1 3.0
2017-Apr-18 14:30N 37°51' E 023°31'0 0.0
2017-Apr-18 13:30N 37°51' E 023°31'0 0.0
2017-Apr-18 13:00N 37°51' E 023°31'0 0.0
2017-Apr-18 12:30N 37°51' E 023°31'0 0.0
2017-Apr-18 12:00N 37°51' E 023°31'0 0.1
2017-Apr-18 11:30N 37°51' E 023°31'0 0.2
2017-Apr-18 11:00N 37°51' E 023°31'0 0.2
2017-Apr-18 10:30N 37°51' E 023°32'0 0.1
2017-Apr-18 10:00N 37°51' E 023°32'0 0.1
2017-Apr-18 09:30N 37°51' E 023°32'0 0.0
2017-Apr-18 09:00N 37°51' E 023°32'0 0.1
2017-Apr-18 08:30N 37°51' E 023°32'0 0.0
2017-Apr-18 08:00N 37°51' E 023°32'0 0.0
2017-Apr-18 07:30N 37°51' E 023°32'0 0.1
2017-Apr-18 07:00N 37°51' E 023°32'0 0.0
2017-Apr-18 06:30N 37°51' E 023°32'0 0.0
2017-Apr-18 06:00N 37°51' E 023°32'0 0.1
2017-Apr-18 05:30N 37°51' E 023°32'0 0.7
2017-Apr-18 05:00N 37°51' E 023°32'4 7.9
2017-Apr-18 04:30N 37°55' E 023°34'2 3.9
2017-Apr-18 04:00N 37°57' E 023°34'  
Track history (hours):
 
Tides and Currents Weather Stations Pressure Air Temp Water Temp Dewpoint Dewpoint Depression Visibility Wind Speed Wind Dir Waves Ship Positions

Ecokeeper

Last reported at 2017-Apr-23 18:41 UTC. Time now 2017-Apr-23 21:49 UTC.
Position N 37°57' E 023°34'.

Length 90 m; draft 4.3 m.

Type: Tanker. MMSI: 240689000.

Date/timePositionNaut miles runAvg speedWind from/ knotsBaromVisibWave heightAir tempDewpointWater temp
2017-Apr-23 18:41N 37°57' E 023°34'0 0.7
2017-Apr-23 18:30N 37°57' E 023°34'1 1.9
2017-Apr-23 18:01N 37°56' E 023°35'2 4.7
2017-Apr-23 17:30N 37°55' E 023°33'3 6.8
2017-Apr-23 17:00N 37°52' E 023°30'0 0.6
2017-Apr-23 16:30N 37°52' E 023°30'0 0.0
2017-Apr-23 16:00N 37°52' E 023°30'0 0.1
2017-Apr-23 15:30N 37°52' E 023°30'0 0.0
2017-Apr-23 15:00N 37°52' E 023°30'0 0.1
2017-Apr-23 14:00N 37°52' E 023°30'0 0.0
2017-Apr-23 13:30N 37°52' E 023°30'0 0.0
2017-Apr-23 13:00N 37°52' E 023°30'0 0.0
2017-Apr-23 12:30N 37°52' E 023°30'0 0.0
2017-Apr-23 12:00N 37°52' E 023°30'0 0.0
2017-Apr-23 11:30N 37°52' E 023°30'0 0.0
2017-Apr-23 11:00N 37°52' E 023°30'0 0.1
2017-Apr-23 10:30N 37°52' E 023°30'0 0.2
2017-Apr-23 10:00N 37°52' E 023°30'0 0.6
2017-Apr-23 09:30N 37°52' E 023°30'2 4.0
2017-Apr-23 09:00N 37°53' E 023°32'4 7.3
2017-Apr-23 08:30N 37°56' E 023°35'1 2.1
2017-Apr-23 08:00N 37°57' E 023°34'0 0.0
2017-Apr-22 16:26N 37°57' E 023°34'1 2.5
2017-Apr-22 16:00N 37°56' E 023°35'2 4.8
2017-Apr-22 15:31N 37°54' E 023°33'0 0.1
2017-Apr-22 15:01N 37°54' E 023°33'0 0.2
2017-Apr-22 14:31N 37°54' E 023°33'0 0.1
2017-Apr-22 13:31N 37°54' E 023°33'0 0.0
2017-Apr-22 13:01N 37°54' E 023°33'0 0.0
2017-Apr-22 12:31N 37°54' E 023°33'0 0.1
2017-Apr-22 12:01N 37°54' E 023°33'0 0.0
2017-Apr-22 11:31N 37°54' E 023°33'0 0.0
2017-Apr-22 11:01N 37°54' E 023°33'0 0.0
2017-Apr-22 10:30N 37°54' E 023°33'0 0.1
2017-Apr-22 10:01N 37°54' E 023°33'0 0.1
2017-Apr-22 09:30N 37°54' E 023°33'0 0.0
2017-Apr-22 09:01N 37°54' E 023°33'0 0.0
2017-Apr-22 08:31N 37°54' E 023°33'0 0.0
2017-Apr-22 08:01N 37°54' E 023°33'0 0.0
2017-Apr-22 07:30N 37°54' E 023°33'0 0.0
2017-Apr-22 07:01N 37°54' E 023°33'0 0.0
2017-Apr-22 06:31N 37°54' E 023°33'0 0.2
2017-Apr-22 06:01N 37°54' E 023°33'3 5.8
2017-Apr-22 05:30N 37°56' E 023°35'1 1.8
2017-Apr-22 05:01N 37°57' E 023°34'0 0.0
2017-Apr-21 11:09N 37°57' E 023°34'0 1.3
2017-Apr-21 11:00N 37°57' E 023°34'2 4.6
2017-Apr-21 10:30N 37°57' E 023°37'0 0.0
2017-Apr-21 10:00N 37°57' E 023°37'0 0.0
2017-Apr-21 09:30N 37°57' E 023°37'0 0.0
2017-Apr-21 09:00N 37°57' E 023°37'0 0.0
2017-Apr-21 08:31N 37°57' E 023°37'0 0.0
2017-Apr-21 08:01N 37°57' E 023°37'0 0.0
2017-Apr-21 07:30N 37°57' E 023°37'0 0.0
2017-Apr-21 07:00N 37°57' E 023°37'0 0.0
2017-Apr-21 06:30N 37°57' E 023°37'0 0.0
2017-Apr-21 06:00N 37°57' E 023°37'0 0.2
2017-Apr-21 05:30N 37°57' E 023°37'2 4.6
2017-Apr-21 05:00N 37°57' E 023°34'0 0.0
2017-Apr-19 16:08N 37°57' E 023°34'0 0.1
2017-Apr-19 16:00N 37°57' E 023°34'2 3.5
2017-Apr-19 15:30N 37°55' E 023°34'4 7.4
2017-Apr-19 15:00N 37°52' E 023°32'2 3.1
2017-Apr-19 14:30N 37°51' E 023°31'0 0.1
2017-Apr-19 13:30N 37°51' E 023°31'0 0.0
2017-Apr-19 13:00N 37°51' E 023°31'0 0.0
2017-Apr-19 12:31N 37°51' E 023°31'0 0.0
2017-Apr-19 12:00N 37°51' E 023°31'0 0.1
2017-Apr-19 11:30N 37°51' E 023°31'0 0.0
2017-Apr-19 10:36N 37°51' E 023°31'0 0.1
2017-Apr-19 10:28N 37°51' E 023°31'0 0.0
2017-Apr-19 09:16N 37°51' E 023°31'0 0.0
2017-Apr-19 08:39N 37°51' E 023°31'0 0.1
2017-Apr-19 08:25N 37°51' E 023°31'0 0.0
2017-Apr-19 07:59N 37°51' E 023°31'0 0.1
2017-Apr-19 07:29N 37°50' E 023°31'0 0.2
2017-Apr-19 07:01N 37°50' E 023°31'0 0.5
2017-Apr-19 06:30N 37°51' E 023°31'0 0.7
2017-Apr-19 06:00N 37°51' E 023°31'1 2.1
2017-Apr-19 05:30N 37°52' E 023°32'4 7.2
2017-Apr-19 05:01N 37°55' E 023°35'3 5.2
2017-Apr-19 04:30N 37°57' E 023°37'0 0.1
2017-Apr-19 04:00N 37°57' E 023°37'0 0.0
2017-Apr-19 03:30N 37°57' E 023°37'0 0.0
2017-Apr-19 03:00N 37°57' E 023°37'0 0.0
2017-Apr-19 02:30N 37°57' E 023°37'0 0.0
2017-Apr-19 02:00N 37°57' E 023°37'0 0.0
2017-Apr-19 01:30N 37°57' E 023°37'0 0.0
2017-Apr-19 01:00N 37°57' E 023°37'0 0.0
2017-Apr-19 00:30N 37°57' E 023°37'0 0.0
2017-Apr-19 00:00N 37°57' E 023°37'0 0.0
2017-Apr-18 23:30N 37°57' E 023°37'0 0.0
2017-Apr-18 23:00N 37°57' E 023°37'0 0.0
2017-Apr-18 22:30N 37°57' E 023°37'0 0.0
2017-Apr-18 22:00N 37°57' E 023°37'0 0.0
2017-Apr-18 21:30N 37°57' E 023°37'0 0.0
2017-Apr-18 21:00N 37°57' E 023°37'0 0.0
2017-Apr-18 20:30N 37°57' E 023°37'0 0.0
2017-Apr-18 20:00N 37°57' E 023°37'0 0.0
2017-Apr-18 19:30N 37°57' E 023°37'0 0.0
2017-Apr-18 19:00N 37°57' E 023°37'0 0.0
2017-Apr-18 18:30N 37°57' E 023°37'0 0.0
2017-Apr-18 18:00N 37°57' E 023°37'0 0.0
2017-Apr-18 17:30N 37°57' E 023°37'0 0.0
2017-Apr-18 17:00N 37°57' E 023°37'0 0.0
2017-Apr-18 16:30N 37°57' E 023°37'0 0.0
2017-Apr-18 16:00N 37°57' E 023°37'2 3.4
2017-Apr-18 15:30N 37°55' E 023°35'4 7.3
2017-Apr-18 15:00N 37°52' E 023°33'1 3.0
2017-Apr-18 14:30N 37°51' E 023°31'0 0.0
2017-Apr-18 13:30N 37°51' E 023°31'0 0.0
2017-Apr-18 13:00N 37°51' E 023°31'0 0.0
2017-Apr-18 12:30N 37°51' E 023°31'0 0.0
2017-Apr-18 12:00N 37°51' E 023°31'0 0.1
2017-Apr-18 11:30N 37°51' E 023°31'0 0.2
2017-Apr-18 11:00N 37°51' E 023°31'0 0.2
2017-Apr-18 10:30N 37°51' E 023°32'0 0.1
2017-Apr-18 10:00N 37°51' E 023°32'0 0.1
2017-Apr-18 09:30N 37°51' E 023°32'0 0.0
2017-Apr-18 09:00N 37°51' E 023°32'0 0.1
2017-Apr-18 08:30N 37°51' E 023°32'0 0.0
2017-Apr-18 08:00N 37°51' E 023°32'0 0.0
2017-Apr-18 07:30N 37°51' E 023°32'0 0.1
2017-Apr-18 07:00N 37°51' E 023°32'0 0.0
2017-Apr-18 06:30N 37°51' E 023°32'0 0.0
2017-Apr-18 06:00N 37°51' E 023°32'0 0.1
2017-Apr-18 05:30N 37°51' E 023°32'0 0.7
2017-Apr-18 05:00N 37°51' E 023°32'4 7.9
2017-Apr-18 04:30N 37°55' E 023°34'2 3.9
2017-Apr-18 04:00N 37°57' E 023°34'  

Dump ship's entire track history